logo
Search for airport 
image banner adimage banner adimage banner ad
image banner ad

05VT - Port Of Highgate Springs

Located in Highgate Springs, United States

ICAO - 05VT, IATA -

Data provided by Airmate  

General information

Coordinates: N45°0'48" W73°5'12"
Elevation is 68 feet MSL.
 
View others Airports in Vermont

Operational data

Special qualification required
Current time UTC:
Current local time:
Weather at : KFSO - Franklin County State ( 8 km )
METAR: KFSO 220835Z AUTO 19004KT 10SM SCT080 BKN110 19/19 A2984 RMK AO2 T01920186
View NOTAMs / SUP AIP / TFR affecting this airport [VIEW]
Communications frequencies: [VIEW]

Runways:

RWY identifierQFULength (ft)Width (ft)SurfaceLDA (ft)
H18080CONC
8080CONC

Airport contact information

Address: Highgate Springs United States

Satellite view of 05VT